Time;durP1;ratioP1;P1;durP2;ratioP2;P2;SDS_P1;SDS_P2;PMS_P1;PMS_P2;Temp;Humidity;BMP_temperature;BMP_pressure;BME280_temperature;BME280_humidity;BME280_pressure;Samples;Min_cycle;Max_cycle;Signal;HPM_P1;HPM_P2
2021/04/02 00:01:14;;;;;;;10.30;9.00;;;8.70;74.50;;;;;;5126889;28;20050;-70
2021/04/02 00:03:45;;;;;;;12.32;8.98;;;8.70;74.30;;;;;;5125737;28;20082;-71
2021/04/02 00:06:18;;;;;;;9.32;8.23;;;8.70;74.30;;;;;;5126892;28;20469;-70
2021/04/02 00:08:50;;;;;;;9.23;7.93;;;8.70;74.00;;;;;;5121109;28;20070;-70
2021/04/02 00:11:21;;;;;;;10.48;8.48;;;8.70;74.00;;;;;;5122065;28;20137;-70
2021/04/02 00:13:53;;;;;;;13.65;9.15;;;8.60;74.20;;;;;;5126777;28;20055;-70
2021/04/02 00:16:24;;;;;;;9.45;8.30;;;8.60;74.20;;;;;;5124204;28;20050;-70
2021/04/02 00:18:55;;;;;;;9.70;8.70;;;8.70;73.80;;;;;;5123230;28;20055;-70
2021/04/02 00:21:27;;;;;;;8.93;7.80;;;8.60;74.10;;;;;;5118190;28;20051;-70
2021/04/02 00:23:58;;;;;;;9.55;8.35;;;8.70;73.70;;;;;;5124384;28;20077;-70
2021/04/02 00:26:30;;;;;;;10.13;8.90;;;8.70;73.30;;;;;;5123013;28;20066;-70
2021/04/02 00:29:02;;;;;;;9.52;8.63;;;8.70;73.20;;;;;;5156665;28;20198;-69
2021/04/02 00:31:33;;;;;;;13.05;8.00;;;8.70;73.30;;;;;;5126077;28;20054;-70
2021/04/02 00:34:06;;;;;;;15.57;8.60;;;8.70;73.70;;;;;;5128012;28;20054;-69
2021/04/02 00:36:38;;;;;;;9.40;8.45;;;8.70;73.60;;;;;;5123697;28;20117;-69
2021/04/02 00:39:09;;;;;;;10.82;8.32;;;8.70;73.20;;;;;;5124375;28;20134;-70
2021/04/02 00:41:41;;;;;;;12.70;8.43;;;8.80;73.70;;;;;;5125054;28;20667;-71
2021/04/02 00:44:12;;;;;;;8.82;7.93;;;8.80;73.30;;;;;;5141086;28;20086;-69
2021/04/02 00:46:43;;;;;;;9.38;7.97;;;8.70;73.20;;;;;;5120449;28;20146;-70
2021/04/02 00:49:15;;;;;;;9.45;7.80;;;8.70;73.30;;;;;;5124744;28;20492;-69
2021/04/02 00:51:46;;;;;;;11.55;8.20;;;8.80;73.20;;;;;;5123371;28;20059;-70
2021/04/02 00:54:18;;;;;;;13.32;8.48;;;8.70;73.20;;;;;;5127763;28;20062;-71
2021/04/02 00:56:49;;;;;;;9.93;8.07;;;8.80;73.40;;;;;;5154676;28;20057;-69
2021/04/02 00:59:21;;;;;;;9.00;8.10;;;8.80;73.20;;;;;;5125363;28;20110;-70
2021/04/02 01:01:56;;;;;;;12.85;9.13;;;8.80;73.00;;;;;;5121546;28;20039;-70
2021/04/02 01:04:27;;;;;;;9.15;8.18;;;8.90;73.10;;;;;;5127453;28;20492;-69
2021/04/02 01:07:00;;;;;;;12.30;8.90;;;8.90;72.90;;;;;;5122894;28;20058;-69
2021/04/02 01:09:31;;;;;;;11.25;9.20;;;8.80;72.90;;;;;;5123751;28;20398;-70
2021/04/02 01:12:05;;;;;;;10.45;8.40;;;8.70;73.00;;;;;;5123565;28;20126;-70
2021/04/02 01:14:36;;;;;;;10.27;8.80;;;8.60;73.10;;;;;;5122227;28;20047;-70
2021/04/02 01:17:08;;;;;;;9.85;8.85;;;8.60;73.60;;;;;;5157076;28;20421;-70
2021/04/02 01:19:49;;;;;;;9.75;8.43;;;8.50;73.90;;;;;;5155651;28;20161;-69
2021/04/02 01:22:26;;;;;;;10.77;9.25;;;8.50;74.00;;;;;;5122443;28;20587;-69
2021/04/02 01:25:39;;;;;;;13.00;9.05;;;8.50;73.70;;;;;;5138232;28;20054;-69
2021/04/02 01:28:27;;;;;;;10.00;8.45;;;8.50;73.70;;;;;;5124762;28;20117;-69
2021/04/02 01:31:01;;;;;;;10.15;8.68;;;8.50;73.70;;;;;;5154487;28;20055;-70
2021/04/02 01:33:33;;;;;;;10.90;9.02;;;8.50;73.40;;;;;;5140061;28;20051;-69
2021/04/02 01:36:07;;;;;;;12.85;9.30;;;8.50;73.70;;;;;;5156678;28;20130;-69
2021/04/02 01:38:42;;;;;;;11.75;8.82;;;8.60;74.20;;;;;;5120897;28;20062;-68
2021/04/02 01:41:15;;;;;;;11.90;8.80;;;8.60;73.30;;;;;;5155536;28;20577;-69
2021/04/02 01:43:53;;;;;;;11.02;9.45;;;8.60;72.70;;;;;;5122652;28;20675;-70
2021/04/02 01:46:27;;;;;;;11.07;9.25;;;8.50;73.00;;;;;;5139280;28;20046;-69
2021/04/02 01:49:01;;;;;;;9.88;8.88;;;8.50;73.20;;;;;;5137218;28;20062;-69
2021/04/02 01:51:36;;;;;;;10.25;9.13;;;8.40;73.30;;;;;;5153315;28;20070;-70
2021/04/02 01:54:09;;;;;;;11.10;9.65;;;8.50;73.20;;;;;;5152161;28;20059;-69
2021/04/02 01:56:42;;;;;;;10.02;8.93;;;8.40;73.00;;;;;;5136386;28;20190;-70
2021/04/02 01:59:15;;;;;;;11.20;9.63;;;8.40;73.30;;;;;;5126718;28;20121;-68
2021/04/02 02:01:51;;;;;;;10.80;9.68;;;8.30;73.70;;;;;;5127249;28;20051;-70
2021/04/02 02:04:28;;;;;;;12.32;10.00;;;8.20;74.20;;;;;;5142300;28;20074;-69
2021/04/02 02:07:01;;;;;;;12.55;9.50;;;8.20;74.30;;;;;;5158269;28;20131;-69
2021/04/02 02:09:46;;;;;;;12.75;9.27;;;8.20;74.10;;;;;;5139125;28;20043;-70
2021/04/02 02:12:35;;;;;;;10.40;9.40;;;8.20;74.20;;;;;;5127992;28;20051;-70
2021/04/02 02:15:18;;;;;;;10.30;9.30;;;8.20;74.50;;;;;;5142874;28;20161;-70
2021/04/02 02:17:56;;;;;;;10.43;9.32;;;8.10;74.60;;;;;;5160750;28;20054;-70
2021/04/02 02:20:31;;;;;;;10.35;9.25;;;8.10;74.60;;;;;;5127659;28;20858;-69
2021/04/02 02:23:08;;;;;;;12.85;9.68;;;8.10;74.60;;;;;;5126731;28;20106;-69
2021/04/02 02:25:42;;;;;;;11.38;9.30;;;8.10;74.60;;;;;;5139064;28;20043;-69
2021/04/02 02:28:15;;;;;;;10.20;9.15;;;8.10;74.60;;;;;;5158704;28;20058;-70
2021/04/02 02:30:46;;;;;;;11.57;9.52;;;8.10;74.80;;;;;;5125360;28;20058;-70
2021/04/02 02:33:27;;;;;;;10.63;9.27;;;8.10;74.90;;;;;;5157465;28;20043;-70
2021/04/02 02:36:06;;;;;;;11.45;9.52;;;8.20;75.60;;;;;;5141931;28;20048;-69
2021/04/02 02:38:41;;;;;;;13.20;9.57;;;8.10;74.60;;;;;;5157613;28;20836;-70
2021/04/02 02:41:14;;;;;;;11.93;9.10;;;8.10;74.60;;;;;;5123774;28;20054;-69
2021/04/02 02:43:47;;;;;;;10.60;9.60;;;8.10;75.00;;;;;;5140948;28;20062;-69
2021/04/02 02:46:20;;;;;;;12.40;9.02;;;8.10;75.10;;;;;;5159817;28;20039;-70
2021/04/02 02:48:57;;;;;;;10.80;8.80;;;8.10;75.40;;;;;;5156543;28;20065;-70
2021/04/02 02:51:31;;;;;;;13.50;9.57;;;8.30;74.10;;;;;;5130006;28;20055;-69
2021/04/02 02:54:06;;;;;;;14.13;8.93;;;8.30;73.30;;;;;;5142732;28;20059;-70
2021/04/02 02:56:42;;;;;;;9.68;8.68;;;8.40;73.70;;;;;;5155355;28;20062;-70
2021/04/02 02:59:17;;;;;;;10.98;9.25;;;8.40;73.70;;;;;;5127818;28;20066;-69
2021/04/02 03:01:51;;;;;;;11.48;9.00;;;8.40;73.40;;;;;;5123764;28;20044;-70
2021/04/02 03:04:26;;;;;;;11.55;9.05;;;8.40;73.10;;;;;;5141615;28;20054;-69
2021/04/02 03:07:02;;;;;;;13.35;9.10;;;8.40;73.10;;;;;;5160626;28;20632;-70
2021/04/02 03:09:37;;;;;;;10.48;9.38;;;8.40;72.90;;;;;;5127346;28;20053;-69
2021/04/02 03:12:10;;;;;;;14.55;9.68;;;8.30;73.40;;;;;;5142208;28;20067;-69
2021/04/02 03:14:45;;;;;;;10.25;9.18;;;8.00;73.80;;;;;;5155106;28;20039;-70
2021/04/02 03:17:19;;;;;;;13.32;9.50;;;7.80;74.60;;;;;;5123644;28;20052;-71
2021/04/02 03:19:53;;;;;;;12.82;9.82;;;7.70;74.80;;;;;;5126299;28;20059;-70
2021/04/02 03:22:29;;;;;;;9.98;8.68;;;7.70;74.70;;;;;;5154803;28;20039;-70
2021/04/02 03:25:25;;;;;;;12.05;8.75;;;7.70;75.30;;;;;;5154401;28;20054;-71
2021/04/02 03:28:05;;;;;;;12.52;9.05;;;7.80;75.00;;;;;;5142554;28;20065;-70
2021/04/02 03:30:45;;;;;;;11.75;8.82;;;7.90;74.10;;;;;;5128983;28;20082;-69
2021/04/02 03:33:23;;;;;;;10.65;9.10;;;7.90;73.70;;;;;;5138471;28;20410;-70
2021/04/02 03:36:14;;;;;;;10.23;9.13;;;7.90;73.90;;;;;;5159693;28;20055;-70
2021/04/02 03:38:49;;;;;;;10.52;8.50;;;7.80;73.80;;;;;;5126270;28;20058;-71
2021/04/02 03:41:31;;;;;;;9.73;8.73;;;7.80;73.90;;;;;;5129463;28;20054;-70
2021/04/02 03:44:10;;;;;;;9.93;8.93;;;7.80;74.10;;;;;;5141350;28;20049;-69
2021/04/02 03:46:44;;;;;;;9.32;8.32;;;7.70;74.40;;;;;;5155484;28;20054;-71
2021/04/02 03:49:23;;;;;;;10.27;8.57;;;7.60;74.60;;;;;;5140942;28;20062;-71
2021/04/02 03:52:00;;;;;;;9.30;8.40;;;7.50;75.60;;;;;;5139245;28;20054;-70
2021/04/02 03:54:34;;;;;;;11.18;8.55;;;7.40;75.00;;;;;;5154765;28;20066;-71
2021/04/02 03:57:12;;;;;;;10.38;8.50;;;7.40;75.40;;;;;;5153934;28;20043;-70
2021/04/02 03:59:48;;;;;;;10.77;9.00;;;7.30;75.70;;;;;;5117593;28;20035;-70
2021/04/02 04:02:20;;;;;;;11.07;9.00;;;7.20;76.40;;;;;;5123259;28;20138;-70
2021/04/02 04:04:55;;;;;;;11.27;9.13;;;7.30;75.40;;;;;;5141706;28;20047;-71
2021/04/02 04:07:30;;;;;;;11.07;8.95;;;7.40;75.10;;;;;;5160535;28;20071;-70
2021/04/02 04:10:02;;;;;;;12.02;9.70;;;7.40;74.70;;;;;;5124658;28;20043;-71
2021/04/02 04:12:38;;;;;;;9.93;8.93;;;7.30;74.90;;;;;;5157080;28;20051;-69
2021/04/02 04:15:14;;;;;;;12.18;8.52;;;7.30;74.80;;;;;;5125051;28;20039;-70
2021/04/02 04:17:50;;;;;;;10.88;8.50;;;7.30;75.10;;;;;;5123900;28;20061;-69
2021/04/02 04:20:23;;;;;;;10.48;8.73;;;7.40;75.10;;;;;;5156267;28;20043;-70
2021/04/02 04:23:13;;;;;;;9.63;8.73;;;7.40;74.50;;;;;;5140915;28;20047;-70
2021/04/02 04:25:48;;;;;;;13.18;9.55;;;7.40;74.80;;;;;;5127220;28;20058;-70
2021/04/02 04:28:21;;;;;;;10.05;9.02;;;7.40;75.00;;;;;;5127185;28;20149;-71
2021/04/02 04:30:57;;;;;;;10.23;9.13;;;7.40;74.90;;;;;;5127167;28;20047;-70
2021/04/02 04:33:29;;;;;;;11.85;9.23;;;7.40;74.50;;;;;;5122668;28;20042;-69
2021/04/02 04:36:03;;;;;;;10.30;9.05;;;7.40;74.00;;;;;;5122621;28;20053;-68
2021/04/02 04:38:38;;;;;;;15.13;8.80;;;7.40;74.30;;;;;;5121038;28;20055;-71
2021/04/02 04:41:10;;;;;;;10.80;9.13;;;7.30;74.60;;;;;;5124279;28;20051;-70
2021/04/02 04:43:44;;;;;;;10.45;8.50;;;7.30;74.60;;;;;;5126430;28;20367;-70
2021/04/02 04:46:16;;;;;;;12.65;8.82;;;7.20;75.00;;;;;;5126848;28;20103;-69
2021/04/02 04:48:48;;;;;;;11.35;8.55;;;7.20;75.00;;;;;;5126714;28;20070;-70
2021/04/02 04:51:21;;;;;;;10.70;8.82;;;7.20;74.70;;;;;;5125911;28;20058;-70
2021/04/02 04:53:55;;;;;;;10.43;8.68;;;7.30;74.60;;;;;;5127129;28;20576;-70
2021/04/02 04:56:30;;;;;;;10.38;9.48;;;7.30;74.50;;;;;;5123172;28;20640;-70
2021/04/02 04:59:04;;;;;;;12.43;8.82;;;7.20;74.80;;;;;;5124854;28;20519;-70
2021/04/02 05:01:47;;;;;;;10.20;9.15;;;7.10;75.00;;;;;;5124449;28;20102;-68
2021/04/02 05:04:20;;;;;;;10.30;8.63;;;7.10;75.20;;;;;;5140162;28;20059;-70
2021/04/02 05:06:59;;;;;;;10.00;8.98;;;7.10;75.00;;;;;;5155308;28;20055;-70
2021/04/02 05:09:31;;;;;;;9.33;8.43;;;7.00;75.30;;;;;;5125125;28;20562;-69
2021/04/02 05:12:06;;;;;;;10.52;9.10;;;7.00;75.00;;;;;;5123209;28;20481;-69
2021/04/02 05:14:40;;;;;;;11.98;9.52;;;7.10;75.40;;;;;;5129555;28;20507;-69
2021/04/02 05:17:13;;;;;;;11.43;9.45;;;7.00;75.50;;;;;;5122100;28;20066;-68
2021/04/02 05:19:45;;;;;;;12.88;8.68;;;7.00;75.70;;;;;;5125201;28;20521;-68
2021/04/02 05:22:17;;;;;;;11.40;8.70;;;7.00;75.70;;;;;;5126702;28;20050;-69
2021/04/02 05:24:48;;;;;;;9.80;8.85;;;7.00;75.40;;;;;;5129001;28;20457;-69
2021/04/02 05:27:20;;;;;;;11.48;8.95;;;7.10;75.60;;;;;;5126633;28;20062;-69
2021/04/02 05:29:51;;;;;;;9.80;8.73;;;7.20;75.10;;;;;;5124553;28;20490;-69
2021/04/02 05:32:22;;;;;;;10.32;9.07;;;7.20;75.20;;;;;;5128074;28;20073;-69
2021/04/02 05:34:54;;;;;;;12.57;9.18;;;7.20;75.80;;;;;;5130217;28;20043;-68
2021/04/02 05:37:25;;;;;;;10.38;8.68;;;7.20;76.00;;;;;;5128923;28;20156;-69
2021/04/02 05:39:56;;;;;;;11.85;9.38;;;7.40;75.80;;;;;;5127596;28;20047;-69
2021/04/02 05:42:32;;;;;;;10.32;9.02;;;7.50;75.50;;;;;;5127505;28;20119;-69
2021/04/02 05:45:04;;;;;;;13.65;9.50;;;7.60;75.20;;;;;;5129192;28;20047;-69
2021/04/02 05:47:37;;;;;;;10.40;9.40;;;7.70;75.40;;;;;;5128198;28;20098;-69
2021/04/02 05:50:11;;;;;;;12.15;9.10;;;7.90;75.10;;;;;;5130231;28;20071;-68
2021/04/02 05:52:47;;;;;;;10.75;8.70;;;8.00;74.90;;;;;;5130714;28;20465;-69
2021/04/02 05:55:19;;;;;;;12.13;9.13;;;8.10;74.70;;;;;;5124691;28;20043;-69
2021/04/02 05:57:51;;;;;;;13.10;10.02;;;8.10;74.50;;;;;;5128423;28;20051;-69
2021/04/02 06:00:23;;;;;;;12.48;9.10;;;8.30;74.50;;;;;;5129479;28;20462;-69
2021/04/02 06:02:59;;;;;;;10.48;9.30;;;8.40;73.70;;;;;;5127072;28;20051;-69
2021/04/02 06:05:31;;;;;;;15.10;9.52;;;8.50;73.20;;;;;;5128959;28;20105;-69
2021/04/02 06:08:03;;;;;;;13.60;10.18;;;8.60;73.10;;;;;;5131189;28;20093;-69
2021/04/02 06:10:35;;;;;;;11.60;10.27;;;8.70;73.00;;;;;;5131120;28;20039;-69
2021/04/02 06:13:07;;;;;;;14.27;10.57;;;8.80;73.30;;;;;;5128633;28;20070;-68
2021/04/02 06:15:41;;;;;;;16.80;10.73;;;9.00;72.50;;;;;;5136107;28;20046;-70
2021/04/02 06:18:13;;;;;;;11.75;10.10;;;9.00;72.60;;;;;;5129846;28;20066;-69
2021/04/02 06:20:48;;;;;;;14.57;10.65;;;9.20;72.30;;;;;;5129877;28;20047;-69
2021/04/02 06:23:22;;;;;;;12.63;10.15;;;9.30;71.90;;;;;;5129987;28;20122;-70
2021/04/02 06:25:56;;;;;;;13.52;10.50;;;9.50;71.60;;;;;;5135545;28;20062;-70
2021/04/02 06:28:34;;;;;;;11.90;10.52;;;9.70;71.30;;;;;;5136590;28;20448;-70
2021/04/02 06:31:11;;;;;;;12.55;10.07;;;9.80;71.00;;;;;;5131916;28;20062;-70
2021/04/02 06:33:55;;;;;;;14.23;10.02;;;9.90;70.70;;;;;;5126483;28;20516;-69
2021/04/02 06:36:28;;;;;;;11.32;10.10;;;10.00;70.80;;;;;;5131720;28;20144;-70
2021/04/02 06:39:03;;;;;;;12.18;10.52;;;10.10;71.80;;;;;;5131897;28;20047;-69
2021/04/02 06:41:36;;;;;;;11.48;9.52;;;10.20;70.50;;;;;;5129918;28;20058;-70
2021/04/02 06:44:09;;;;;;;10.82;9.73;;;10.30;70.20;;;;;;5131403;28;20043;-69
2021/04/02 06:46:41;;;;;;;12.15;10.30;;;10.40;69.90;;;;;;5130352;28;20050;-69
2021/04/02 06:49:13;;;;;;;11.02;9.90;;;10.60;69.70;;;;;;5132586;28;20051;-69
2021/04/02 06:51:49;;;;;;;13.85;10.63;;;10.70;69.30;;;;;;5128452;28;20042;-69
2021/04/02 06:54:27;;;;;;;12.52;10.45;;;10.80;68.90;;;;;;5127919;28;20155;-70
2021/04/02 06:57:07;;;;;;;11.18;10.00;;;10.90;68.80;;;;;;5137235;28;20047;-71
2021/04/02 06:59:39;;;;;;;;;;;11.00;68.30;;;;;;5137601;28;20050;-70
2021/04/02 07:02:16;;;;;;;12.52;10.65;;;11.20;68.10;;;;;;5133827;28;19926;-69
2021/04/02 07:04:51;;;;;;;13.00;10.65;;;11.40;68.00;;;;;;5132153;28;20081;-70
2021/04/02 07:07:24;;;;;;;12.32;10.25;;;11.50;66.70;;;;;;5130403;28;20070;-70
2021/04/02 07:09:56;;;;;;;12.10;10.05;;;11.60;66.10;;;;;;5131178;28;20109;-70
2021/04/02 07:12:32;;;;;;;14.13;10.73;;;11.70;66.30;;;;;;5132258;28;20280;-70
2021/04/02 07:15:04;;;;;;;12.00;10.70;;;11.80;65.80;;;;;;5131374;28;20054;-71
2021/04/02 07:17:37;;;;;;;12.00;10.90;;;11.90;65.70;;;;;;5147260;28;20036;-71
2021/04/02 07:20:09;;;;;;;12.70;10.73;;;12.00;65.30;;;;;;5130499;28;20050;-69
2021/04/02 07:22:42;;;;;;;14.02;10.50;;;12.20;65.30;;;;;;5129405;28;20050;-71
2021/04/02 07:25:14;;;;;;;14.68;11.60;;;12.30;64.20;;;;;;5124352;28;20830;-70
2021/04/02 07:27:45;;;;;;;14.25;10.27;;;12.40;64.00;;;;;;5125298;28;20118;-71
2021/04/02 07:30:19;;;;;;;17.65;14.23;;;12.50;63.30;;;;;;5123854;28;20047;-71
2021/04/02 07:32:52;;;;;;;17.77;14.13;;;12.50;62.00;;;;;;5124750;28;20043;-71
2021/04/02 07:35:23;;;;;;;20.63;16.27;;;12.60;61.50;;;;;;5123755;28;20458;-71
2021/04/02 07:37:57;;;;;;;21.80;16.35;;;12.70;61.70;;;;;;5123432;28;20106;-70
2021/04/02 07:40:33;;;;;;;22.20;16.60;;;12.80;61.20;;;;;;5123267;28;20062;-71
2021/04/02 07:43:07;;;;;;;19.13;16.17;;;12.90;61.30;;;;;;5126377;28;20053;-72
2021/04/02 07:45:39;;;;;;;21.33;16.48;;;13.00;60.50;;;;;;5122393;28;20129;-70
2021/04/02 07:48:21;;;;;;;21.38;17.42;;;13.00;60.50;;;;;;5123741;28;20453;-70
2021/04/02 07:51:00;;;;;;;23.58;18.52;;;13.10;60.60;;;;;;5122061;28;20141;-71
2021/04/02 07:53:31;;;;;;;25.20;18.70;;;13.30;60.70;;;;;;5124092;28;20047;-71
2021/04/02 07:56:17;;;;;;;26.15;20.67;;;13.50;60.00;;;;;;5122717;28;20053;-69
2021/04/02 07:58:49;;;;;;;28.55;21.83;;;13.60;58.90;;;;;;5125660;28;20121;-70
2021/04/02 08:01:23;;;;;;;26.92;20.80;;;13.70;58.80;;;;;;5139946;28;20066;-71
2021/04/02 08:04:01;;;;;;;28.10;21.50;;;13.80;58.00;;;;;;5122326;28;20509;-68
2021/04/02 08:06:37;;;;;;;26.65;22.63;;;13.90;58.00;;;;;;5124761;28;20186;-73
2021/04/02 08:09:09;;;;;;;28.98;23.33;;;13.90;58.10;;;;;;5124396;28;20059;-71
2021/04/02 08:11:47;;;;;;;31.00;24.15;;;14.00;57.50;;;;;;5126365;28;20043;-70
2021/04/02 08:14:36;;;;;;;28.92;23.30;;;14.10;57.50;;;;;;5123494;28;20126;-70
2021/04/02 08:17:09;;;;;;;27.50;23.15;;;14.20;56.60;;;;;;5124288;28;20047;-69
2021/04/02 08:19:41;;;;;;;29.20;23.10;;;14.30;57.20;;;;;;5124956;28;20041;-70
2021/04/02 08:22:17;;;;;;;28.77;24.15;;;14.40;57.30;;;;;;5122616;28;20852;-70
2021/04/02 08:24:49;;;;;;;30.73;24.88;;;14.60;56.90;;;;;;5124413;28;20047;-70
2021/04/02 08:27:20;;;;;;;34.42;26.42;;;14.70;56.70;;;;;;5123880;28;20408;-70
2021/04/02 08:30:03;;;;;;;30.15;24.35;;;14.70;54.50;;;;;;5121897;28;20050;-70
2021/04/02 08:32:38;;;;;;;28.48;22.10;;;14.60;55.90;;;;;;5122818;28;20069;-72
2021/04/02 08:35:12;;;;;;;28.10;22.60;;;14.80;54.50;;;;;;5122578;28;20055;-70
2021/04/02 08:38:01;;;;;;;31.23;22.88;;;14.90;56.10;;;;;;5123658;28;20145;-70
2021/04/02 08:40:35;;;;;;;27.40;22.27;;;15.00;55.20;;;;;;5126138;28;20120;-71
2021/04/02 08:43:10;;;;;;;28.27;22.63;;;15.10;55.30;;;;;;5141511;28;20713;-71
2021/04/02 08:46:02;;;;;;;29.63;22.73;;;15.20;55.10;;;;;;5124429;28;20055;-72
2021/04/02 08:48:33;;;;;;;29.15;21.60;;;15.40;54.50;;;;;;5155705;28;20047;-72
2021/04/02 08:51:05;;;;;;;27.27;22.50;;;15.40;55.00;;;;;;5125320;28;20051;-71
2021/04/02 08:53:40;;;;;;;27.10;22.83;;;15.50;54.00;;;;;;5123432;28;20051;-70
2021/04/02 08:56:20;;;;;;;24.40;21.88;;;15.60;54.00;;;;;;5128353;28;20054;-70
2021/04/02 08:58:52;;;;;;;22.75;20.33;;;15.70;54.10;;;;;;5125418;28;20043;-70
2021/04/02 09:01:24;;;;;;;24.10;20.77;;;15.70;53.40;;;;;;5135846;28;20770;-71
2021/04/02 09:03:56;;;;;;;26.25;21.50;;;15.80;52.90;;;;;;5123269;28;20524;-69
2021/04/02 09:06:28;;;;;;;29.60;20.95;;;15.90;52.40;;;;;;5120325;28;20046;-70
2021/04/02 09:09:02;;;;;;;23.67;21.08;;;15.80;53.40;;;;;;5127315;28;20046;-70
2021/04/02 09:11:35;;;;;;;30.65;22.60;;;16.00;53.00;;;;;;5126621;28;20051;-71
2021/04/02 09:14:10;;;;;;;26.40;20.90;;;16.10;52.70;;;;;;5127058;28;20082;-70
2021/04/02 09:16:44;;;;;;;26.38;21.00;;;16.20;52.20;;;;;;5123901;28;20063;-70
2021/04/02 09:19:17;;;;;;;25.20;21.83;;;16.20;51.60;;;;;;5122866;28;20059;-70
2021/04/02 09:21:56;;;;;;;23.37;20.87;;;16.30;52.00;;;;;;5123141;28;20053;-70
2021/04/02 09:24:27;;;;;;;23.05;19.95;;;16.40;51.00;;;;;;5123582;28;20042;-71
2021/04/02 09:27:07;;;;;;;22.00;19.67;;;16.50;51.20;;;;;;5126842;28;20629;-71
2021/04/02 09:29:41;;;;;;;22.73;19.98;;;16.60;51.10;;;;;;5125865;28;20145;-71
2021/04/02 09:32:13;;;;;;;22.75;20.45;;;16.70;50.50;;;;;;5137106;28;20189;-70
2021/04/02 09:34:45;;;;;;;24.17;19.13;;;16.70;50.80;;;;;;5124314;28;20110;-70
2021/04/02 09:37:16;;;;;;;22.42;20.00;;;16.80;50.20;;;;;;5124173;28;20050;-70
2021/04/02 09:39:48;;;;;;;22.80;19.15;;;16.90;49.90;;;;;;5121548;28;20089;-70
2021/04/02 09:42:20;;;;;;;21.63;19.33;;;16.90;50.00;;;;;;5105250;28;20047;-70
2021/04/02 09:44:51;;;;;;;24.33;20.10;;;17.00;50.60;;;;;;5128402;28;20066;-70
2021/04/02 09:47:22;;;;;;;22.58;19.73;;;17.10;50.70;;;;;;5126046;28;20730;-70
2021/04/02 09:49:55;;;;;;;21.30;19.08;;;17.20;50.30;;;;;;5125523;28;20417;-70
2021/04/02 09:52:26;;;;;;;21.77;18.92;;;17.00;50.60;;;;;;5119488;28;20576;-70
2021/04/02 09:54:58;;;;;;;24.20;21.48;;;16.90;51.20;;;;;;5125972;28;20050;-70
2021/04/02 09:57:29;;;;;;;23.42;20.05;;;16.80;51.40;;;;;;5124246;28;20082;-70
2021/04/02 10:00:02;;;;;;;24.35;20.02;;;17.10;51.60;;;;;;5121828;28;20039;-70
2021/04/02 10:02:40;;;;;;;22.52;19.27;;;17.20;50.70;;;;;;5129107;28;20050;-71
2021/04/02 10:05:12;;;;;;;23.45;20.48;;;17.20;52.00;;;;;;5123183;28;20066;-72
2021/04/02 10:07:44;;;;;;;25.90;19.98;;;17.10;51.70;;;;;;5124486;28;20191;-72
2021/04/02 10:10:16;;;;;;;26.60;20.63;;;17.30;51.10;;;;;;5124324;28;20122;-72
2021/04/02 10:12:48;;;;;;;22.00;19.63;;;17.40;51.40;;;;;;5129898;28;20977;-72
2021/04/02 10:15:19;;;;;;;23.48;19.70;;;17.40;51.40;;;;;;5123718;28;20123;-73
2021/04/02 10:17:50;;;;;;;23.25;17.85;;;17.40;51.20;;;;;;5124210;28;20058;-71
2021/04/02 10:20:22;;;;;;;22.20;19.48;;;17.40;51.40;;;;;;5130040;28;20109;-70
2021/04/02 10:22:53;;;;;;;26.13;20.02;;;17.60;51.30;;;;;;5143105;28;20102;-70
2021/04/02 10:25:25;;;;;;;23.75;21.08;;;17.60;51.50;;;;;;5125390;28;20120;-69
2021/04/02 10:27:56;;;;;;;23.10;20.30;;;17.50;51.90;;;;;;5128199;28;20456;-69
2021/04/02 10:30:28;;;;;;;27.88;20.92;;;17.30;52.10;;;;;;5128417;28;20178;-69
2021/04/02 10:32:59;;;;;;;24.80;19.73;;;17.30;52.60;;;;;;5131219;28;20047;-70
2021/04/02 10:35:33;;;;;;;22.65;19.27;;;17.20;51.90;;;;;;5128238;28;20050;-70
2021/04/02 10:38:04;;;;;;;22.90;19.65;;;17.40;51.70;;;;;;5132964;28;20043;-72
2021/04/02 10:40:36;;;;;;;21.80;19.45;;;17.50;51.60;;;;;;5132301;28;20043;-70
2021/04/02 10:43:09;;;;;;;20.90;18.70;;;17.60;51.70;;;;;;5129027;28;20130;-70
2021/04/02 10:45:40;;;;;;;21.58;17.40;;;17.40;51.70;;;;;;5127292;28;20090;-71
2021/04/02 10:48:12;;;;;;;24.67;19.48;;;17.30;51.80;;;;;;5131254;28;20051;-70
2021/04/02 10:50:45;;;;;;;21.70;17.55;;;17.40;51.60;;;;;;5130137;28;20563;-70
2021/04/02 10:53:16;;;;;;;21.13;17.27;;;17.40;51.60;;;;;;5127237;28;20122;-71
2021/04/02 10:55:48;;;;;;;23.20;18.60;;;17.20;52.30;;;;;;5128378;28;20046;-71
2021/04/02 10:58:19;;;;;;;20.70;18.40;;;17.40;51.80;;;;;;5126618;28;20094;-72
2021/04/02 11:00:51;;;;;;;22.70;17.73;;;17.60;50.80;;;;;;5128785;28;20039;-73
2021/04/02 11:03:22;;;;;;;21.65;17.27;;;17.80;50.20;;;;;;5126752;28;20066;-71
2021/04/02 11:05:54;;;;;;;19.67;17.13;;;17.90;49.90;;;;;;5142802;28;20050;-71
2021/04/02 11:08:25;;;;;;;19.88;17.83;;;17.90;49.40;;;;;;5129613;28;20046;-72
2021/04/02 11:10:57;;;;;;;21.80;17.55;;;17.80;50.10;;;;;;5125604;28;20059;-72
2021/04/02 11:13:29;;;;;;;21.60;17.67;;;18.10;49.40;;;;;;5127736;28;20046;-72
2021/04/02 11:16:00;;;;;;;20.42;18.30;;;18.20;48.00;;;;;;5130393;28;20590;-71
2021/04/02 11:18:32;;;;;;;20.77;18.63;;;18.40;48.10;;;;;;5134412;28;20098;-71
2021/04/02 11:21:04;;;;;;;21.75;16.98;;;18.60;48.30;;;;;;5125506;28;20489;-71
2021/04/02 11:23:35;;;;;;;19.65;17.50;;;18.60;47.50;;;;;;5129557;28;20121;-72
2021/04/02 11:26:07;;;;;;;22.55;18.17;;;18.70;47.20;;;;;;5142177;28;20061;-71
2021/04/02 11:28:39;;;;;;;22.92;17.85;;;18.90;45.90;;;;;;5127364;28;20054;-70
2021/04/02 11:31:10;;;;;;;21.90;19.10;;;19.10;45.70;;;;;;5128728;28;20047;-70
2021/04/02 11:33:42;;;;;;;24.70;19.90;;;19.30;44.50;;;;;;5125583;28;20055;-70
2021/04/02 11:36:13;;;;;;;25.30;20.10;;;19.50;46.00;;;;;;5139711;28;20405;-70
2021/04/02 11:38:44;;;;;;;20.95;18.75;;;19.70;45.30;;;;;;5129727;28;20544;-70
2021/04/02 11:41:16;;;;;;;22.40;18.80;;;19.80;44.90;;;;;;5125172;28;20047;-70
2021/04/02 11:43:47;;;;;;;21.83;19.00;;;20.00;42.50;;;;;;5137589;28;20047;-72
2021/04/02 11:46:19;;;;;;;21.17;18.40;;;20.10;45.00;;;;;;5124943;28;20047;-72
2021/04/02 11:48:50;;;;;;;26.20;19.23;;;20.30;42.80;;;;;;5120663;28;20932;-72
2021/04/02 11:51:21;;;;;;;22.00;19.10;;;20.40;42.60;;;;;;5127118;28;20059;-71
2021/04/02 11:53:53;;;;;;;19.30;17.23;;;20.50;42.70;;;;;;5144817;28;20736;-71
2021/04/02 11:56:26;;;;;;;19.75;16.50;;;20.60;40.60;;;;;;5126701;28;20070;-71
2021/04/02 11:58:58;;;;;;;20.48;16.17;;;20.60;40.40;;;;;;5126045;28;20551;-71
2021/04/02 12:01:29;;;;;;;20.27;16.50;;;20.70;38.70;;;;;;5122165;28;20074;-71
2021/04/02 12:04:01;;;;;;;17.92;16.02;;;20.70;38.60;;;;;;5122597;28;20105;-71
2021/04/02 12:06:33;;;;;;;18.90;15.98;;;20.80;38.50;;;;;;5124046;28;20545;-70
2021/04/02 12:09:06;;;;;;;23.35;18.35;;;20.70;38.70;;;;;;5126184;28;20459;-71
2021/04/02 12:11:38;;;;;;;29.10;23.75;;;20.70;39.40;;;;;;5119420;28;20094;-70
2021/04/02 12:14:10;;;;;;;31.20;26.90;;;20.70;42.50;;;;;;5124380;28;20531;-71
2021/04/02 12:16:41;;;;;;;31.63;27.02;;;20.70;43.60;;;;;;5125163;28;20059;-71
2021/04/02 12:19:13;;;;;;;30.52;27.20;;;20.70;44.30;;;;;;5124782;28;20685;-71
2021/04/02 12:21:44;;;;;;;32.70;27.80;;;20.80;44.50;;;;;;5122415;28;20136;-71
2021/04/02 12:24:16;;;;;;;30.10;26.80;;;20.50;43.70;;;;;;5127484;28;20098;-70
2021/04/02 12:26:47;;;;;;;31.13;26.85;;;20.40;43.50;;;;;;5123874;28;20821;-72
2021/04/02 12:29:18;;;;;;;27.67;24.60;;;20.40;44.00;;;;;;5123959;28;20043;-71
2021/04/02 12:31:50;;;;;;;30.52;27.17;;;20.20;44.00;;;;;;5124624;28;20476;-71
2021/04/02 12:34:21;;;;;;;31.48;28.15;;;20.00;45.00;;;;;;5122744;28;20117;-70
2021/04/02 12:36:53;;;;;;;33.03;26.42;;;20.00;45.50;;;;;;5127086;28;20413;-70
2021/04/02 12:39:24;;;;;;;31.00;26.63;;;20.10;45.60;;;;;;5121356;28;20090;-70
2021/04/02 12:41:56;;;;;;;32.88;27.67;;;20.00;45.90;;;;;;5138266;28;20148;-71
2021/04/02 12:44:27;;;;;;;33.35;26.65;;;19.60;46.20;;;;;;5122067;28;20541;-70
2021/04/02 12:46:59;;;;;;;30.13;26.75;;;19.80;46.10;;;;;;5121407;28;20142;-71
2021/04/02 12:49:30;;;;;;;30.95;27.73;;;20.00;46.10;;;;;;5125446;28;20105;-70
2021/04/02 12:52:02;;;;;;;32.15;27.50;;;20.10;45.20;;;;;;5124281;28;20057;-72
2021/04/02 12:54:33;;;;;;;32.08;27.35;;;20.20;45.00;;;;;;5124387;28;20039;-72
2021/04/02 12:57:05;;;;;;;33.15;29.10;;;20.00;45.60;;;;;;5127269;28;20105;-72
2021/04/02 12:59:37;;;;;;;32.03;28.55;;;19.80;45.70;;;;;;5126728;28;20588;-70
2021/04/02 13:02:09;;;;;;;31.90;28.45;;;19.70;46.10;;;;;;5125305;28;20123;-70
2021/04/02 13:04:41;;;;;;;35.42;29.15;;;19.50;46.40;;;;;;5125189;28;20397;-71
2021/04/02 13:07:12;;;;;;;34.33;29.10;;;19.50;46.10;;;;;;5122550;28;20054;-70
2021/04/02 13:09:44;;;;;;;32.45;28.95;;;19.30;46.00;;;;;;5126441;28;20058;-70
2021/04/02 13:12:15;;;;;;;31.20;27.80;;;19.00;47.30;;;;;;5120984;28;20055;-70